createdAt,value
2019-04-03T00:00:32.854Z,7.22
2019-04-03T00:02:37.358Z,7.78
2019-04-03T00:04:41.624Z,7.60
2019-04-03T00:06:46.276Z,7.67
2019-04-03T00:08:50.084Z,6.42
2019-04-03T00:10:53.598Z,7.00
2019-04-03T00:12:57.504Z,7.47
2019-04-03T00:15:01.318Z,7.50
2019-04-03T00:17:05.496Z,7.05
2019-04-03T00:19:12.408Z,7.30
2019-04-03T00:21:17.747Z,6.92
2019-04-03T00:23:22.914Z,6.25
2019-04-03T00:25:26.765Z,7.65
2019-04-03T00:27:30.597Z,7.30
2019-04-03T00:29:34.776Z,6.58
2019-04-03T00:31:38.976Z,6.60
2019-04-03T00:33:43.120Z,6.42
2019-04-03T00:35:47.301Z,7.87
2019-04-03T00:37:52.991Z,7.37
2019-04-03T00:39:56.953Z,7.97
2019-04-03T00:42:01.094Z,8.05
2019-04-03T00:44:07.451Z,8.30
2019-04-03T00:46:11.651Z,8.25
2019-04-03T00:48:15.865Z,7.67
2019-04-03T00:50:21.850Z,8.95
2019-04-03T00:52:27.203Z,8.35
2019-04-03T00:54:31.631Z,8.13
2019-04-03T00:56:35.837Z,8.90
2019-04-03T00:58:42.081Z,7.95
2019-04-03T01:00:46.172Z,8.80
2019-04-03T01:02:50.268Z,8.33
2019-04-03T01:04:54.474Z,8.40
2019-04-03T01:07:00.942Z,7.72
2019-04-03T01:09:07.322Z,8.00
2019-04-03T01:11:11.512Z,8.33
2019-04-03T01:13:15.317Z,7.60
2019-04-03T01:15:19.444Z,7.75
2019-04-03T01:17:23.656Z,8.50
2019-04-03T01:19:29.884Z,7.75
2019-04-03T01:21:36.369Z,8.33
2019-04-03T01:23:40.006Z,8.43
2019-04-03T01:25:44.378Z,8.30
2019-04-03T01:27:48.484Z,8.75
2019-04-03T01:29:52.912Z,8.73
2019-04-03T01:31:57.130Z,8.35
2019-04-03T01:34:00.964Z,9.15
2019-04-03T01:36:05.134Z,9.33
2019-04-03T01:38:09.344Z,8.65
2019-04-03T01:40:13.657Z,8.95
2019-04-03T01:42:17.798Z,9.63
2019-04-03T01:44:24.301Z,9.03
2019-04-03T01:46:28.166Z,8.45
2019-04-03T01:48:33.622Z,9.03
2019-04-03T01:50:37.445Z,8.90
2019-04-03T01:52:41.598Z,8.95
2019-04-03T01:54:45.834Z,8.33
2019-04-03T01:56:49.926Z,8.85
2019-04-03T01:58:54.138Z,8.48
2019-04-03T02:00:58.257Z,8.20
2019-04-03T02:03:04.184Z,7.30
2019-04-03T02:05:08.939Z,7.50
2019-04-03T02:07:14.854Z,7.72
2019-04-03T02:09:18.995Z,8.33
2019-04-03T02:11:23.195Z,8.00
2019-04-03T02:13:27.298Z,7.83
2019-04-03T02:15:33.462Z,7.35
2019-04-03T02:17:39.708Z,7.25
2019-04-03T02:19:44.942Z,6.95
2019-04-03T02:21:48.770Z,7.83
2019-04-03T02:23:54.575Z,7.33
2019-04-03T02:25:58.436Z,7.03
2019-04-03T02:28:03.852Z,7.55
2019-04-03T02:30:13.055Z,7.70
2019-04-03T02:32:17.348Z,8.43
2019-04-03T02:34:21.525Z,7.53
2019-04-03T02:36:25.724Z,7.17
2019-04-03T02:38:29.839Z,6.70
2019-04-03T02:40:35.475Z,6.92
2019-04-03T02:42:41.554Z,6.75
2019-04-03T02:44:45.267Z,5.97
2019-04-03T02:46:49.369Z,6.12
2019-04-03T02:48:53.476Z,6.90
2019-04-03T02:50:59.591Z,7.53
2019-04-03T02:53:06.870Z,6.92
2019-04-03T02:55:12.658Z,6.97
2019-04-03T02:57:17.900Z,6.97
2019-04-03T02:59:25.153Z,7.10
2019-04-03T03:01:27.912Z,6.50
2019-04-03T03:03:32.683Z,6.67
2019-04-03T03:05:36.792Z,6.37
2019-04-03T03:07:43.168Z,6.65
2019-04-03T03:09:48.027Z,6.10
2019-04-03T03:11:56.085Z,6.78
2019-04-03T03:14:00.142Z,9.23
2019-04-03T03:16:04.519Z,6.67
2019-04-03T03:18:09.196Z,5.97
2019-04-03T03:20:13.458Z,6.45
2019-04-03T03:22:18.948Z,6.22
2019-04-03T03:24:28.443Z,6.65
2019-04-03T03:26:31.042Z,6.22
2019-04-03T03:28:35.224Z,6.83
2019-04-03T03:30:46.554Z,7.70
2019-04-03T03:32:46.676Z,6.62
2019-04-03T03:35:04.936Z,6.95
2019-04-03T03:37:00.664Z,6.75
2019-04-03T03:39:04.927Z,6.47
2019-04-03T03:41:09.452Z,6.08
2019-04-03T03:43:15.891Z,5.83
2019-04-03T03:45:21.996Z,6.72
2019-04-03T03:47:26.324Z,5.67
2019-04-03T03:49:31.010Z,6.60
2019-04-03T03:51:35.285Z,6.33
2019-04-03T03:53:43.934Z,6.35
2019-04-03T03:55:46.174Z,6.72
2019-04-03T03:57:50.706Z,6.40
2019-04-03T03:59:55.101Z,6.40
2019-04-03T04:02:03.461Z,5.75
2019-04-03T04:04:06.386Z,6.70
2019-04-03T04:06:12.975Z,6.42
2019-04-03T04:08:17.319Z,5.58
2019-04-03T04:10:25.234Z,6.28
2019-04-03T04:12:28.056Z,5.67
2019-04-03T04:14:36.635Z,5.92
2019-04-03T04:16:40.803Z,4.92
2019-04-03T04:18:44.689Z,5.62
2019-04-03T04:20:48.903Z,5.85
2019-04-03T04:22:53.511Z,5.25
2019-04-03T04:24:59.543Z,5.05
2019-04-03T04:27:03.619Z,5.25
2019-04-03T04:29:10.324Z,5.62
2019-04-03T04:31:13.926Z,6.47
2019-04-03T04:33:17.906Z,5.03
2019-04-03T04:35:26.373Z,5.35
2019-04-03T04:37:30.483Z,5.75
2019-04-03T04:39:34.701Z,5.22
2019-04-03T04:41:39.207Z,5.10
2019-04-03T04:43:43.010Z,5.78
2019-04-03T04:45:52.225Z,4.72
2019-04-03T04:47:57.693Z,5.05
2019-04-03T04:50:01.507Z,4.55
2019-04-03T04:52:05.722Z,5.17
2019-04-03T04:54:09.809Z,5.62
2019-04-03T04:56:13.642Z,5.65
2019-04-03T04:58:17.734Z,5.55
2019-04-03T05:00:21.882Z,4.87
2019-04-03T05:02:25.940Z,5.08
2019-04-03T05:04:29.623Z,5.50
2019-04-03T05:06:33.751Z,5.60
2019-04-03T05:08:37.958Z,5.37
2019-04-03T05:10:47.380Z,5.95
2019-04-03T05:12:51.607Z,5.57
2019-04-03T05:14:55.723Z,5.65
2019-04-03T05:17:01.346Z,5.50
2019-04-03T05:19:09.973Z,5.37
2019-04-03T05:21:11.405Z,5.67
2019-04-03T05:23:15.445Z,5.60
2019-04-03T05:25:19.255Z,5.58
2019-04-03T05:27:23.459Z,6.30
2019-04-03T05:29:27.672Z,6.42
2019-04-03T05:31:31.945Z,5.75
2019-04-03T05:33:36.595Z,5.80
2019-04-03T05:35:41.057Z,6.62
2019-04-03T05:37:44.923Z,6.35
2019-04-03T05:39:49.867Z,6.05
2019-04-03T05:41:53.701Z,5.45
2019-04-03T05:43:57.915Z,6.05
2019-04-03T05:46:02.097Z,7.00
2019-04-03T05:48:12.084Z,6.72
2019-04-03T05:50:12.515Z,6.08
2019-04-03T05:52:16.567Z,6.62
2019-04-03T05:54:20.682Z,5.80
2019-04-03T05:56:25.409Z,6.37
2019-04-03T05:58:30.000Z,5.85
2019-04-03T06:00:34.135Z,5.65
2019-04-03T06:02:37.954Z,6.78
2019-04-03T06:04:42.718Z,6.08
2019-04-03T06:06:47.346Z,6.00
2019-04-03T06:08:52.022Z,5.90
2019-04-03T06:10:56.216Z,7.75
2019-04-03T06:13:06.272Z,6.85
2019-04-03T06:15:11.091Z,7.55
2019-04-03T06:17:15.222Z,7.20
2019-04-03T06:19:19.325Z,7.83
2019-04-03T06:21:23.449Z,7.60
2019-04-03T06:23:27.446Z,8.45
2019-04-03T06:25:31.529Z,7.30
2019-04-03T06:27:36.431Z,8.15
2019-04-03T06:29:40.595Z,7.70
2019-04-03T06:31:44.802Z,7.33
2019-04-03T06:33:51.165Z,8.40
2019-04-03T06:35:54.449Z,8.68
2019-04-03T06:37:58.572Z,8.30
2019-04-03T06:40:04.316Z,9.68
2019-04-03T06:42:08.595Z,9.35
2019-04-03T06:44:12.469Z,9.65
2019-04-03T06:46:16.572Z,10.28
2019-04-03T06:48:20.624Z,11.15
2019-04-03T06:50:24.705Z,11.75
2019-04-03T06:52:28.876Z,11.05
2019-04-03T06:54:33.079Z,12.07
2019-04-03T06:56:39.997Z,12.70
2019-04-03T06:58:44.405Z,12.37
2019-04-03T07:00:48.346Z,11.97
2019-04-03T07:02:52.487Z,14.70
2019-04-03T07:04:56.921Z,12.65
2019-04-03T07:07:01.001Z,27.32
2019-04-03T07:09:07.487Z,20.85
2019-04-03T07:11:23.398Z,10.98
2019-04-03T07:13:23.626Z,4.80
2019-04-03T07:15:27.791Z,4.42
2019-04-03T07:17:32.848Z,3.30
2019-04-03T07:19:39.257Z,2.20
2019-04-03T07:21:42.697Z,1.40
2019-04-03T07:23:46.881Z,1.15
2019-04-03T07:25:51.071Z,1.22
2019-04-03T07:27:54.998Z,0.90
2019-04-03T07:29:59.236Z,1.20
2019-04-03T07:32:06.983Z,0.80
2019-04-03T07:34:11.156Z,1.00
2019-04-03T07:36:15.261Z,0.80
2019-04-03T07:38:21.458Z,0.90
2019-04-03T07:40:25.021Z,0.90
2019-04-03T07:42:30.493Z,0.80
2019-04-03T07:44:36.214Z,1.00
2019-04-03T07:46:40.483Z,0.75
2019-04-03T07:48:46.065Z,0.72
2019-04-03T07:50:52.525Z,0.80
2019-04-03T07:52:57.554Z,0.60
2019-04-03T07:55:02.177Z,0.70
2019-04-03T07:57:09.688Z,0.88
2019-04-03T07:59:17.244Z,0.90
2019-04-03T08:01:21.183Z,1.00
2019-04-03T08:03:24.984Z,0.90
2019-04-03T08:05:30.936Z,0.80
2019-04-03T08:07:35.143Z,1.40
2019-04-03T08:09:39.837Z,1.22
2019-04-03T08:11:43.982Z,1.35
2019-04-03T08:13:48.084Z,0.80
2019-04-03T08:15:52.379Z,0.70
2019-04-03T08:17:57.504Z,0.80
2019-04-03T08:20:01.797Z,0.80
2019-04-03T08:22:07.151Z,2.75
2019-04-03T08:24:10.973Z,2.55
2019-04-03T08:26:18.498Z,0.82
2019-04-03T08:28:20.679Z,1.10
2019-04-03T08:30:24.560Z,1.10
2019-04-03T08:32:28.673Z,1.20
2019-04-03T08:34:32.768Z,0.80
2019-04-03T08:36:39.074Z,0.90
2019-04-03T08:38:44.250Z,0.90
2019-04-03T08:40:51.444Z,1.32
2019-04-03T08:42:55.635Z,0.98
2019-04-03T08:44:59.768Z,0.82
2019-04-03T08:47:03.869Z,1.17
2019-04-03T08:49:08.423Z,1.50
2019-04-03T08:51:12.606Z,0.72
2019-04-03T08:53:16.440Z,1.57
2019-04-03T08:55:20.469Z,1.12
2019-04-03T08:57:24.376Z,1.20
2019-04-03T08:59:28.802Z,1.30
2019-04-03T09:01:34.429Z,0.80
2019-04-03T09:03:39.217Z,0.80
2019-04-03T09:05:43.323Z,1.00
2019-04-03T09:07:47.450Z,0.80
2019-04-03T09:09:51.570Z,1.15
2019-04-03T09:11:55.763Z,1.00
2019-04-03T09:13:59.572Z,1.05
2019-04-03T09:16:03.387Z,1.20
2019-04-03T09:18:07.798Z,0.95
2019-04-03T09:20:14.064Z,1.67
2019-04-03T09:22:20.834Z,1.05
2019-04-03T09:24:24.886Z,1.47
2019-04-03T09:26:34.881Z,1.60
2019-04-03T09:28:37.235Z,1.67
2019-04-03T09:30:41.361Z,1.45
2019-04-03T09:32:45.575Z,1.60
2019-04-03T09:34:49.672Z,2.52
2019-04-03T09:36:54.209Z,1.80
2019-04-03T09:38:58.400Z,1.77
2019-04-03T09:41:02.975Z,1.70
2019-04-03T09:43:07.202Z,1.80
2019-04-03T09:45:11.777Z,1.60
2019-04-03T09:47:15.973Z,2.15
2019-04-03T09:49:20.083Z,1.72
2019-04-03T09:51:24.190Z,1.95
2019-04-03T09:53:28.347Z,2.80
2019-04-03T09:55:36.016Z,3.30
2019-04-03T09:57:38.084Z,1.92
2019-04-03T09:59:41.894Z,1.75
2019-04-03T10:01:48.770Z,0.80
2019-04-03T10:03:55.306Z,1.65
2019-04-03T10:06:00.223Z,1.57
2019-04-03T10:08:07.605Z,1.95
2019-04-03T10:10:14.046Z,2.67
2019-04-03T10:12:18.311Z,1.85
2019-04-03T10:14:22.803Z,1.40
2019-04-03T10:16:27.406Z,1.05
2019-04-03T10:18:31.512Z,2.00
2019-04-03T10:20:35.530Z,1.40
2019-04-03T10:22:39.784Z,1.80
2019-04-03T10:24:44.064Z,0.70
2019-04-03T10:26:48.206Z,1.10
2019-04-03T10:28:52.110Z,1.30
2019-04-03T10:30:58.229Z,1.67
2019-04-03T10:33:04.308Z,1.00
2019-04-03T10:35:09.234Z,2.30
2019-04-03T10:37:14.767Z,1.20
2019-04-03T10:39:20.481Z,1.05
2019-04-03T10:41:27.629Z,2.25
2019-04-03T10:43:31.039Z,1.40
2019-04-03T10:45:35.231Z,1.57
2019-04-03T10:47:43.344Z,1.77
2019-04-03T10:49:45.202Z,1.90
2019-04-03T10:51:49.652Z,1.35
2019-04-03T10:53:53.812Z,1.90
2019-04-03T10:55:59.327Z,1.27
2019-04-03T10:58:06.547Z,1.40
2019-04-03T11:00:12.605Z,1.20
2019-04-03T11:02:16.504Z,1.50
2019-04-03T11:04:20.322Z,1.50
2019-04-03T11:06:24.152Z,1.40
2019-04-03T11:08:28.050Z,1.40
2019-04-03T11:10:32.236Z,1.45
2019-04-03T11:12:36.137Z,1.50
2019-04-03T11:14:42.515Z,1.80
2019-04-03T11:16:47.219Z,1.47
2019-04-03T11:18:58.549Z,1.50
2019-04-03T11:20:57.912Z,2.33
2019-04-03T11:23:06.869Z,1.92
2019-04-03T11:25:09.112Z,1.82
2019-04-03T11:27:12.995Z,1.70
2019-04-03T11:29:17.142Z,1.67
2019-04-03T11:31:27.101Z,2.22
2019-04-03T11:33:27.539Z,1.90
2019-04-03T11:35:31.714Z,1.85
2019-04-03T11:37:35.526Z,1.60
2019-04-03T11:39:39.710Z,2.12
2019-04-03T11:41:43.596Z,2.15
2019-04-03T11:43:47.471Z,2.10
2019-04-03T11:45:53.705Z,2.12
2019-04-03T11:48:00.958Z,2.50
2019-04-03T11:50:06.847Z,2.02
2019-04-03T11:52:10.922Z,2.15
2019-04-03T11:54:15.042Z,2.10
2019-04-03T11:56:19.559Z,2.10
2019-04-03T11:58:23.780Z,2.10
2019-04-03T12:00:29.406Z,2.00
2019-04-03T12:02:33.245Z,2.00
2019-04-03T12:04:37.417Z,2.20
2019-04-03T12:06:44.906Z,2.08
2019-04-03T12:08:51.339Z,2.47
2019-04-03T12:10:58.542Z,2.27
2019-04-03T12:13:04.263Z,2.40
2019-04-03T12:15:08.587Z,2.22
2019-04-03T12:17:12.740Z,1.95
2019-04-03T12:19:16.639Z,2.03
2019-04-03T12:21:20.339Z,1.93
2019-04-03T12:23:26.910Z,2.00
2019-04-03T12:25:33.566Z,2.10
2019-04-03T12:27:36.824Z,1.92
2019-04-03T12:29:41.057Z,2.10
2019-04-03T12:31:44.880Z,2.03
2019-04-03T12:33:56.214Z,2.00
2019-04-03T12:35:55.254Z,2.25
2019-04-03T12:37:59.167Z,2.17
2019-04-03T12:40:03.578Z,1.60
2019-04-03T12:42:08.747Z,2.33
2019-04-03T12:44:13.443Z,1.92
2019-04-03T12:46:19.469Z,1.77
2019-04-03T12:48:23.038Z,2.30
2019-04-03T12:50:27.614Z,2.10
2019-04-03T12:52:32.436Z,1.90
2019-04-03T12:54:36.643Z,1.55
2019-04-03T12:56:40.774Z,1.70
2019-04-03T12:58:45.249Z,1.70
2019-04-03T13:00:49.415Z,1.60
2019-04-03T13:02:55.627Z,3.02
2019-04-03T13:05:05.061Z,2.98
2019-04-03T13:07:07.614Z,1.60
2019-04-03T13:09:12.387Z,1.40
2019-04-03T13:11:18.616Z,1.40
2019-04-03T13:13:22.585Z,1.20
2019-04-03T13:15:28.521Z,1.40
2019-04-03T13:17:32.728Z,1.12
2019-04-03T13:19:36.824Z,1.00
2019-04-03T13:21:43.306Z,0.88
2019-04-03T13:23:47.709Z,0.90
2019-04-03T13:25:53.181Z,1.30
2019-04-03T13:27:57.784Z,0.95
2019-04-03T13:30:01.635Z,1.00
2019-04-03T13:32:05.782Z,1.35
2019-04-03T13:34:11.187Z,1.30
2019-04-03T13:36:18.236Z,0.98
2019-04-03T13:38:21.721Z,1.30
2019-04-03T13:40:25.912Z,1.20
2019-04-03T13:42:31.325Z,1.62
2019-04-03T13:44:35.564Z,1.10
2019-04-03T13:46:39.864Z,1.07
2019-04-03T13:48:44.911Z,1.22
2019-04-03T13:50:54.817Z,1.12
2019-04-03T13:52:58.178Z,1.05
2019-04-03T13:55:02.376Z,1.00
2019-04-03T13:57:07.495Z,1.00
2019-04-03T13:59:12.142Z,0.88
2019-04-03T14:01:18.801Z,1.10
2019-04-03T14:03:23.239Z,1.30
2019-04-03T14:05:31.884Z,2.00
2019-04-03T14:07:33.290Z,1.95
2019-04-03T14:09:37.161Z,1.30
2019-04-03T14:11:41.286Z,1.37
2019-04-03T14:13:45.927Z,0.90
2019-04-03T14:15:49.810Z,1.20
2019-04-03T14:17:57.648Z,1.15
2019-04-03T14:19:59.503Z,1.70
2019-04-03T14:22:03.282Z,1.60
2019-04-03T14:24:08.869Z,1.87
2019-04-03T14:26:14.638Z,1.42
2019-04-03T14:28:19.189Z,1.40
2019-04-03T14:30:23.411Z,1.30
2019-04-03T14:32:27.588Z,1.30
2019-04-03T14:34:31.407Z,0.93
2019-04-03T14:36:35.238Z,1.30
2019-04-03T14:38:39.340Z,3.02
2019-04-03T14:40:44.355Z,4.20
2019-04-03T14:42:48.646Z,3.70
2019-04-03T14:44:52.785Z,3.33
2019-04-03T14:46:56.696Z,1.98
2019-04-03T14:49:03.736Z,1.35
2019-04-03T14:51:07.873Z,1.32
2019-04-03T14:53:11.902Z,1.40
2019-04-03T14:55:19.909Z,2.05
2019-04-03T14:57:23.632Z,1.30
2019-04-03T14:59:29.553Z,1.50
2019-04-03T15:01:33.095Z,1.90
2019-04-03T15:03:37.194Z,1.42
2019-04-03T15:05:44.934Z,1.90
2019-04-03T15:07:50.610Z,1.92
2019-04-03T15:09:59.504Z,2.15
2019-04-03T15:12:05.842Z,1.70
2019-04-03T15:14:09.536Z,1.50
2019-04-03T15:16:14.219Z,1.67
2019-04-03T15:18:18.644Z,1.72
2019-04-03T15:20:23.643Z,1.60
2019-04-03T15:22:27.931Z,2.15
2019-04-03T15:24:31.803Z,1.70
2019-04-03T15:26:35.624Z,1.65
2019-04-03T15:28:39.843Z,2.10
2019-04-03T15:30:45.263Z,2.08
2019-04-03T15:32:51.494Z,1.32
2019-04-03T15:34:55.342Z,1.42
2019-04-03T15:36:59.522Z,1.30
2019-04-03T15:39:07.017Z,1.02
2019-04-03T15:41:11.354Z,1.00
2019-04-03T15:43:16.704Z,1.00
2019-04-03T15:45:24.936Z,1.10
2019-04-03T15:47:35.068Z,0.95
2019-04-03T15:49:34.324Z,1.00
2019-04-03T15:51:39.614Z,0.88
2019-04-03T15:53:43.858Z,0.90
2019-04-03T15:55:48.065Z,0.88
2019-04-03T15:57:53.253Z,1.00
2019-04-03T16:00:02.338Z,1.25
2019-04-03T16:02:06.132Z,1.00
2019-04-03T16:04:10.365Z,1.00
2019-04-03T16:06:14.131Z,1.15
2019-04-03T16:08:18.403Z,1.42
2019-04-03T16:10:23.894Z,1.20
2019-04-03T16:12:28.093Z,1.72
2019-04-03T16:14:32.241Z,1.10
2019-04-03T16:16:36.455Z,1.00
2019-04-03T16:18:40.928Z,1.07
2019-04-03T16:20:45.085Z,0.98
2019-04-03T16:22:49.271Z,0.82
2019-04-03T16:24:54.355Z,0.80
2019-04-03T16:26:58.627Z,1.17
2019-04-03T16:29:04.059Z,1.00
2019-04-03T16:31:08.394Z,0.98
2019-04-03T16:33:20.888Z,1.00
2019-04-03T16:35:18.383Z,1.20
2019-04-03T16:37:23.261Z,1.10
2019-04-03T16:39:28.107Z,1.32
2019-04-03T16:41:32.443Z,1.50
2019-04-03T16:43:36.634Z,3.77
2019-04-03T16:45:40.456Z,5.60
2019-04-03T16:47:45.248Z,8.90
2019-04-03T16:49:52.043Z,3.67
2019-04-03T16:51:55.932Z,2.02
2019-04-03T16:54:00.818Z,1.75
2019-04-03T16:56:06.450Z,1.35
2019-04-03T16:58:11.173Z,1.80
2019-04-03T17:00:16.068Z,1.45
2019-04-03T17:02:24.008Z,1.10
2019-04-03T17:04:28.591Z,1.40
2019-04-03T17:06:33.006Z,1.35
2019-04-03T17:08:37.361Z,1.35
2019-04-03T17:10:41.541Z,2.30
2019-04-03T17:12:47.896Z,1.70
2019-04-03T17:14:52.932Z,1.47
2019-04-03T17:16:57.550Z,1.20
2019-04-03T17:19:01.205Z,1.30
2019-04-03T17:21:05.464Z,1.20
2019-04-03T17:23:12.291Z,1.60
2019-04-03T17:25:16.247Z,1.62
2019-04-03T17:27:20.349Z,1.67
2019-04-03T17:29:24.811Z,1.22
2019-04-03T17:31:28.669Z,1.10
2019-04-03T17:33:35.161Z,1.20
2019-04-03T17:35:38.868Z,1.02
2019-04-03T17:37:43.486Z,1.10
2019-04-03T17:39:47.389Z,1.47
2019-04-03T17:41:53.224Z,1.72
2019-04-03T17:43:57.038Z,1.50
2019-04-03T17:46:00.871Z,1.00
2019-04-03T17:48:05.259Z,1.20
2019-04-03T17:50:09.992Z,3.62
2019-04-03T17:52:14.181Z,1.37
2019-04-03T17:54:17.996Z,5.45
2019-04-03T17:56:22.095Z,2.15
2019-04-03T17:58:26.310Z,1.30
2019-04-03T18:00:30.615Z,1.57
2019-04-03T18:02:34.740Z,1.52
2019-04-03T18:04:38.575Z,2.10
2019-04-03T18:06:42.751Z,1.85
2019-04-03T18:08:47.065Z,1.75
2019-04-03T18:10:51.324Z,1.80
2019-04-03T18:12:58.466Z,1.82
2019-04-03T18:15:02.767Z,2.25
2019-04-03T18:17:06.893Z,1.90
2019-04-03T18:19:11.001Z,2.83
2019-04-03T18:21:15.157Z,4.30
2019-04-03T18:23:21.693Z,3.52
2019-04-03T18:25:28.542Z,4.70
2019-04-03T18:27:33.243Z,3.17
2019-04-03T18:29:38.026Z,2.65
2019-04-03T18:31:42.767Z,2.30
2019-04-03T18:33:50.891Z,3.98
2019-04-03T18:35:56.752Z,2.10
2019-04-03T18:38:00.602Z,2.62
2019-04-03T18:40:06.300Z,3.02
2019-04-03T18:42:10.451Z,8.63
2019-04-03T18:44:22.004Z,4.83
2019-04-03T18:46:31.491Z,3.02
2019-04-03T18:48:26.136Z,9.88
2019-04-03T18:50:30.080Z,1.75
2019-04-03T18:52:34.254Z,1.95
2019-04-03T18:54:38.098Z,1.17
2019-04-03T18:56:42.289Z,3.12
2019-04-03T18:58:46.487Z,1.07
2019-04-03T19:00:50.377Z,1.00
2019-04-03T19:02:54.620Z,1.70
2019-04-03T19:05:02.353Z,1.22
2019-04-03T19:07:06.673Z,1.07
2019-04-03T19:09:10.742Z,1.00
2019-04-03T19:11:14.936Z,1.27
2019-04-03T19:13:19.095Z,3.92
2019-04-03T19:15:23.387Z,2.70
2019-04-03T19:17:27.201Z,1.30
2019-04-03T19:19:34.177Z,0.90
2019-04-03T19:21:37.283Z,0.90
2019-04-03T19:23:49.722Z,1.00
2019-04-03T19:25:47.301Z,1.50
2019-04-03T19:27:51.519Z,1.67
2019-04-03T19:29:55.622Z,1.40
2019-04-03T19:31:59.746Z,2.10
2019-04-03T19:34:04.286Z,1.22
2019-04-03T19:36:08.084Z,1.60
2019-04-03T19:38:13.331Z,1.52
2019-04-03T19:40:17.608Z,1.47
2019-04-03T19:42:21.830Z,1.50
2019-04-03T19:44:27.477Z,1.60
2019-04-03T19:46:31.366Z,1.40
2019-04-03T19:48:37.806Z,1.40
2019-04-03T19:50:41.959Z,1.70
2019-04-03T19:52:46.058Z,1.50
2019-04-03T19:54:51.535Z,1.72
2019-04-03T19:56:56.530Z,2.20
2019-04-03T19:59:00.892Z,2.62
2019-04-03T20:01:07.503Z,2.98
2019-04-03T20:03:14.191Z,2.95
2019-04-03T20:05:18.981Z,3.52
2019-04-03T20:07:23.022Z,2.90
2019-04-03T20:09:27.234Z,3.12
2019-04-03T20:11:31.342Z,2.85
2019-04-03T20:13:35.451Z,3.30
2019-04-03T20:15:39.559Z,3.50
2019-04-03T20:17:46.001Z,3.58
2019-04-03T20:19:49.831Z,3.35
2019-04-03T20:21:53.937Z,3.83
2019-04-03T20:23:58.064Z,4.35
2019-04-03T20:26:04.546Z,3.47
2019-04-03T20:28:07.540Z,4.42
2019-04-03T20:30:12.426Z,4.50
2019-04-03T20:32:16.649Z,4.58
2019-04-03T20:34:20.752Z,3.72
2019-04-03T20:36:24.587Z,4.03
2019-04-03T20:38:28.785Z,5.10
2019-04-03T20:40:34.824Z,4.45
2019-04-03T20:42:40.640Z,4.62
2019-04-03T20:44:44.212Z,5.37
2019-04-03T20:46:50.771Z,5.62
2019-04-03T20:48:59.132Z,5.28
2019-04-03T20:51:03.568Z,5.45
2019-04-03T20:53:07.770Z,6.20
2019-04-03T20:55:13.942Z,5.75
2019-04-03T20:57:17.833Z,6.03
2019-04-03T20:59:21.961Z,5.30
2019-04-03T21:01:27.605Z,4.83
2019-04-03T21:03:31.723Z,5.80
2019-04-03T21:05:35.940Z,6.70
2019-04-03T21:07:40.141Z,6.35
2019-04-03T21:09:44.352Z,6.10
2019-04-03T21:11:48.552Z,6.72
2019-04-03T21:13:52.380Z,6.65
2019-04-03T21:15:56.572Z,7.20
2019-04-03T21:18:00.696Z,5.83
2019-04-03T21:20:08.182Z,7.20
2019-04-03T21:22:12.022Z,6.80
2019-04-03T21:24:16.194Z,7.55
2019-04-03T21:26:20.044Z,7.80
2019-04-03T21:28:24.213Z,8.13
2019-04-03T21:30:28.023Z,7.83
2019-04-03T21:32:32.115Z,8.15
2019-04-03T21:34:36.242Z,8.95
2019-04-03T21:36:40.070Z,7.97
2019-04-03T21:38:44.256Z,7.62
2019-04-03T21:40:48.348Z,7.03
2019-04-03T21:42:52.472Z,7.70
2019-04-03T21:44:56.578Z,7.72
2019-04-03T21:47:00.424Z,7.45
2019-04-03T21:49:04.587Z,7.83
2019-04-03T21:51:08.704Z,10.23
2019-04-03T21:53:12.825Z,8.38
2019-04-03T21:55:17.026Z,7.35
2019-04-03T21:57:21.136Z,7.72
2019-04-03T21:59:25.254Z,8.18
2019-04-03T22:01:29.466Z,8.10
2019-04-03T22:03:33.306Z,8.35
2019-04-03T22:05:37.484Z,8.45
2019-04-03T22:07:41.882Z,8.68
2019-04-03T22:09:46.015Z,8.10
2019-04-03T22:11:50.214Z,7.70
2019-04-03T22:13:54.334Z,8.45
2019-04-03T22:15:58.442Z,9.08
2019-04-03T22:18:02.308Z,8.38
2019-04-03T22:20:07.167Z,8.13
2019-04-03T22:22:10.990Z,10.43
2019-04-03T22:24:15.192Z,9.40
2019-04-03T22:26:19.367Z,11.05
2019-04-03T22:28:24.925Z,8.50
2019-04-03T22:30:35.423Z,7.90
2019-04-03T22:32:39.604Z,7.65
2019-04-03T22:34:43.459Z,7.40
2019-04-03T22:36:47.646Z,7.37
2019-04-03T22:38:51.737Z,8.90
2019-04-03T22:40:55.946Z,8.73
2019-04-03T22:43:00.059Z,8.50
2019-04-03T22:45:06.866Z,9.30
2019-04-03T22:47:12.776Z,8.30
2019-04-03T22:49:16.894Z,7.95
2019-04-03T22:51:21.105Z,8.10
2019-04-03T22:53:25.235Z,10.10
2019-04-03T22:55:29.330Z,9.83
2019-04-03T22:57:33.164Z,8.48
2019-04-03T22:59:37.457Z,9.18
2019-04-03T23:01:41.558Z,8.48
2019-04-03T23:03:45.769Z,8.68
2019-04-03T23:05:49.594Z,9.15
2019-04-03T23:07:53.782Z,8.35
2019-04-03T23:09:57.894Z,9.05
2019-04-03T23:12:03.108Z,9.00
2019-04-03T23:14:07.657Z,8.60
2019-04-03T23:16:12.169Z,8.70
2019-04-03T23:18:16.521Z,8.90
2019-04-03T23:20:22.185Z,8.90
2019-04-03T23:22:26.564Z,9.05
2019-04-03T23:24:31.243Z,9.18
2019-04-03T23:26:35.388Z,9.13
2019-04-03T23:28:39.962Z,8.43
2019-04-03T23:30:43.938Z,8.40
2019-04-03T23:32:50.604Z,9.00
2019-04-03T23:34:54.819Z,8.53
2019-04-03T23:36:58.923Z,8.95
2019-04-03T23:39:04.204Z,8.55
2019-04-03T23:41:08.358Z,8.83
2019-04-03T23:43:12.462Z,9.20
2019-04-03T23:45:17.493Z,9.13
2019-04-03T23:47:21.621Z,9.10
2019-04-03T23:49:26.834Z,7.55
2019-04-03T23:51:31.090Z,8.55
2019-04-03T23:53:34.888Z,7.90
2019-04-03T23:55:39.097Z,8.50
2019-04-03T23:57:43.275Z,8.33
2019-04-03T23:59:47.383Z,8.55
